Time;durP1;ratioP1;P1;durP2;ratioP2;P2;SDS_P1;SDS_P2;PMS_P1;PMS_P2;Temp;Humidity;BMP_temperature;BMP_pressure;BME280_temperature;BME280_humidity;BME280_pressure;Samples;Min_cycle;Max_cycle;Signal;HPM_P1;HPM_P2
2022/09/02 00:01:34;;;;;;;;;;;;;;;20.01;39.24;101513.13;5111694;28;19912;-56
2022/09/02 00:04:01;;;;;;;;;;;;;;;20.02;39.26;101517.53;5111527;28;19911;-56
2022/09/02 00:06:30;;;;;;;;;;;;;;;20.02;38.94;101514.81;5111821;28;20338;-56
2022/09/02 00:08:55;;;;;;;;;;;;;;;20.05;39.51;101511.84;5111903;28;19912;-56
2022/09/02 00:11:22;;;;;;;;;;;;;;;20.03;39.27;101512.00;5112763;28;19911;-56
2022/09/02 00:13:48;;;;;;;;;;;;;;;20.01;39.57;101505.03;5110706;28;19930;-56
2022/09/02 00:16:14;;;;;;;;;;;;;;;19.98;40.76;101503.47;5115293;27;20414;-56
2022/09/02 00:18:40;;;;;;;;;;;;;;;19.94;40.08;101499.31;5115480;28;20369;-56
2022/09/02 00:21:05;;;;;;;;;;;;;;;19.93;39.97;101503.88;5115415;28;20324;-56
2022/09/02 00:23:31;;;;;;;;;;;;;;;19.92;39.78;101498.63;5115447;28;19911;-56
2022/09/02 00:25:56;;;;;;;;;;;;;;;19.90;40.53;101500.59;5116894;28;19912;-56
2022/09/02 00:28:22;;;;;;;;;;;;;;;19.84;41.00;101506.59;5149407;27;20368;-56
2022/09/02 00:30:47;;;;;;;;;;;;;;;19.78;40.42;101496.34;5116570;28;19941;-56
2022/09/02 00:33:12;;;;;;;;;;;;;;;19.73;40.99;101500.31;5116451;28;19908;-56
2022/09/02 00:35:38;;;;;;;;;;;;;;;19.74;40.69;101502.03;5116603;28;20325;-56
2022/09/02 00:38:06;;;;;;;;;;;;;;;19.74;40.16;101496.63;5116405;28;19907;-56
2022/09/02 00:40:32;;;;;;;;;;;;;;;19.71;41.78;101496.06;5116654;27;19946;-56
2022/09/02 00:42:57;;;;;;;;;;;;;;;19.63;41.09;101501.28;5114499;28;19992;-56
2022/09/02 00:45:22;;;;;;;;;;;;;;;19.62;41.91;101494.16;5116465;28;19908;-56
2022/09/02 00:47:51;;;;;;;;;;;;;;;19.60;41.64;101493.47;5115016;28;20335;-56
2022/09/02 00:50:18;;;;;;;;;;;;;;;19.57;41.49;101491.88;5114972;28;19956;-56
2022/09/02 00:52:46;;;;;;;;;;;;;;;19.58;41.27;101487.34;5116094;28;19918;-56
2022/09/02 00:55:31;;;;;;;;;;;;;;;19.60;40.93;101491.59;5116016;28;19918;-56
2022/09/02 00:58:08;;;;;;;;;;;;;;;19.60;41.00;101485.34;5113838;27;19912;-56
2022/09/02 01:00:37;;;;;;;;;;;;;;;19.57;41.20;101486.50;5115964;28;20374;-56
2022/09/02 01:03:05;;;;;;;;;;;;;;;19.56;41.13;101486.59;5114623;28;19962;-56
2022/09/02 01:05:32;;;;;;;;;;;;;;;19.55;40.95;101485.75;5116051;28;20374;-56
2022/09/02 01:07:58;;;;;;;;;;;;;;;19.53;41.21;101479.69;5115840;28;19954;-56
2022/09/02 01:10:33;;;;;;;;;;;;;;;19.51;41.39;101481.66;5115694;28;20290;-56
2022/09/02 01:13:00;;;;;;;;;;;;;;;19.49;41.00;101480.94;5115495;28;19966;-56
2022/09/02 01:15:26;;;;;;;;;;;;;;;19.41;41.42;101484.34;5115955;28;19953;-56
2022/09/02 01:17:52;;;;;;;;;;;;;;;19.38;41.75;101481.03;5114272;28;19912;-56
2022/09/02 01:20:22;;;;;;;;;;;;;;;19.36;42.12;101474.94;5115821;28;19907;-56
2022/09/02 01:22:47;;;;;;;;;;;;;;;19.33;42.54;101477.94;5114409;28;19935;-56
2022/09/02 01:25:17;;;;;;;;;;;;;;;19.25;41.82;101476.75;5115359;28;19970;-56
2022/09/02 01:27:43;;;;;;;;;;;;;;;19.22;41.48;101476.19;5115179;28;19912;-56
2022/09/02 01:30:10;;;;;;;;;;;;;;;19.16;41.75;101474.03;5115019;28;19915;-56
2022/09/02 01:32:38;;;;;;;;;;;;;;;19.10;42.61;101477.28;5115363;28;20282;-56
2022/09/02 01:35:04;;;;;;;;;;;;;;;19.07;42.01;101481.09;5115403;28;19908;-56
2022/09/02 01:37:31;;;;;;;;;;;;;;;19.02;42.82;101472.56;5115430;28;19911;-56
2022/09/02 01:39:56;;;;;;;;;;;;;;;19.00;42.40;101474.53;5115207;27;19915;-56
2022/09/02 01:42:22;;;;;;;;;;;;;;;18.96;42.40;101468.56;5115186;28;20274;-56
2022/09/02 01:44:49;;;;;;;;;;;;;;;18.90;43.17;101471.81;5114815;28;19908;-56
2022/09/02 01:47:21;;;;;;;;;;;;;;;18.83;42.68;101466.13;5115516;28;19908;-56
2022/09/02 01:49:47;;;;;;;;;;;;;;;18.79;43.35;101463.81;5115120;28;19907;-56
2022/09/02 01:52:13;;;;;;;;;;;;;;;18.78;43.59;101465.66;5114962;28;19947;-56
2022/09/02 01:54:41;;;;;;;;;;;;;;;18.71;43.00;101466.31;5114854;28;19961;-56
2022/09/02 01:57:06;;;;;;;;;;;;;;;18.67;42.79;101456.78;5113626;28;19919;-56
2022/09/02 01:59:32;;;;;;;;;;;;;;;18.60;42.81;101456.47;5112946;28;20286;-56
2022/09/02 02:01:57;;;;;;;;;;;;;;;18.60;42.63;101462.72;5113778;28;19908;-56
2022/09/02 02:04:23;;;;;;;;;;;;;;;18.58;42.52;101461.13;5114791;28;19907;-56
2022/09/02 02:06:51;;;;;;;;;;;;;;;18.52;44.78;101457.13;5113500;28;19908;-56
2022/09/02 02:09:17;;;;;;;;;;;;;;;18.49;43.68;101465.47;5114452;28;19915;-56
2022/09/02 02:11:43;;;;;;;;;;;;;;;18.48;41.86;101457.53;5113290;28;19912;-56
2022/09/02 02:14:09;;;;;;;;;;;;;;;18.51;42.17;101465.34;5114129;27;19908;-56
2022/09/02 02:16:34;;;;;;;;;;;;;;;18.48;43.25;101452.16;5113466;28;20023;-56
2022/09/02 02:18:59;;;;;;;;;;;;;;;18.46;42.96;101468.44;5114505;28;19912;-56
2022/09/02 02:21:25;;;;;;;;;;;;;;;18.39;42.53;101465.44;5114729;28;19914;-56
2022/09/02 02:23:50;;;;;;;;;;;;;;;18.40;41.89;101463.59;5114122;28;20020;-56
2022/09/02 02:26:15;;;;;;;;;;;;;;;18.39;43.36;101464.56;5113053;28;19930;-57
2022/09/02 02:28:41;;;;;;;;;;;;;;;18.36;43.39;101457.63;5113971;28;19994;-56
2022/09/02 02:31:06;;;;;;;;;;;;;;;18.34;43.70;101454.19;5114272;28;20274;-56
2022/09/02 02:33:31;;;;;;;;;;;;;;;18.36;43.25;101459.47;5114215;28;19943;-56
2022/09/02 02:35:57;;;;;;;;;;;;;;;18.35;43.58;101461.31;5113150;28;19994;-56
2022/09/02 02:38:23;;;;;;;;;;;;;;;18.37;42.81;101455.78;5113638;28;19915;-56
2022/09/02 02:40:48;;;;;;;;;;;;;;;18.36;43.25;101451.38;5114093;28;20322;-56
2022/09/02 02:43:14;;;;;;;;;;;;;;;18.32;43.79;101452.59;5113441;28;19958;-56
2022/09/02 02:45:39;;;;;;;;;;;;;;;18.30;43.29;101449.22;5114163;28;20015;-56
2022/09/02 02:48:05;;;;;;;;;;;;;;;18.27;44.55;101442.25;5113743;28;19915;-56
2022/09/02 02:50:30;;;;;;;;;;;;;;;18.21;44.42;101448.16;5114125;28;20018;-56
2022/09/02 02:52:55;;;;;;;;;;;;;;;18.22;44.09;101447.16;5113553;28;19911;-56
2022/09/02 02:55:22;;;;;;;;;;;;;;;18.26;43.89;101445.91;5112431;28;19911;-56
2022/09/02 02:57:48;;;;;;;;;;;;;;;18.28;43.70;101440.41;5112564;28;19916;-56
2022/09/02 03:00:13;;;;;;;;;;;;;;;18.28;44.53;101441.25;5111910;28;20048;-56
2022/09/02 03:02:38;;;;;;;;;;;;;;;18.26;44.33;101439.69;5113743;28;19932;-56
2022/09/02 03:05:05;;;;;;;;;;;;;;;18.23;44.77;101438.09;5113573;28;19907;-56
2022/09/02 03:07:30;;;;;;;;;;;;;;;18.19;44.90;101441.19;5112267;28;19908;-56
2022/09/02 03:09:55;;;;;;;;;;;;;;;18.15;44.90;101438.78;5112306;28;20044;-56
2022/09/02 03:12:21;;;;;;;;;;;;;;;18.11;44.63;101440.00;5112116;28;19919;-56
2022/09/02 03:14:48;;;;;;;;;;;;;;;18.12;43.61;101436.34;5113005;28;19915;-56
2022/09/02 03:17:13;;;;;;;;;;;;;;;18.11;43.77;101437.31;5113535;28;20357;-56
2022/09/02 03:19:38;;;;;;;;;;;;;;;18.09;44.06;101436.59;5113427;28;19907;-56
2022/09/02 03:22:04;;;;;;;;;;;;;;;18.07;44.88;101438.56;5111853;28;20339;-56
2022/09/02 03:24:29;;;;;;;;;;;;;;;18.04;44.79;101433.44;5112115;28;19950;-56
2022/09/02 03:26:54;;;;;;;;;;;;;;;18.05;43.90;101437.84;5112184;28;20504;-56
2022/09/02 03:29:20;;;;;;;;;;;;;;;18.05;44.02;101440.53;5111547;28;20401;-56
2022/09/02 03:31:45;;;;;;;;;;;;;;;18.02;44.63;101434.56;5112029;28;20039;-56
2022/09/02 03:34:10;;;;;;;;;;;;;;;17.97;43.75;101428.72;5113002;28;19908;-56
2022/09/02 03:36:37;;;;;;;;;;;;;;;17.90;44.43;101440.00;5113146;28;20319;-56
2022/09/02 03:39:04;;;;;;;;;;;;;;;17.86;45.24;101433.19;5113361;28;19930;-56
2022/09/02 03:41:30;;;;;;;;;;;;;;;17.82;45.16;101431.72;5113182;28;20448;-56
2022/09/02 03:43:55;;;;;;;;;;;;;;;17.79;46.21;101431.13;5111264;28;20034;-56
2022/09/02 03:46:20;;;;;;;;;;;;;;;17.77;44.82;101428.53;5111832;28;19908;-56
2022/09/02 03:48:46;;;;;;;;;;;;;;;17.74;45.10;101431.50;5111725;28;19908;-56
2022/09/02 03:51:11;;;;;;;;;;;;;;;17.69;45.09;101431.88;5111497;28;19935;-56
2022/09/02 03:53:37;;;;;;;;;;;;;;;17.68;45.81;101426.63;5111027;28;19941;-56
2022/09/02 03:56:07;;;;;;;;;;;;;;;17.65;46.59;101416.97;5113009;28;19918;-57
2022/09/02 03:58:33;;;;;;;;;;;;;;;17.61;46.10;101420.88;5112476;28;19911;-56
2022/09/02 04:00:58;;;;;;;;;;;;;;;17.58;46.43;101415.75;5113126;28;19908;-56
2022/09/02 04:03:23;;;;;;;;;;;;;;;17.58;46.48;101417.59;5111522;28;19956;-56
2022/09/02 04:05:51;;;;;;;;;;;;;;;17.56;45.66;101417.75;5112682;28;20006;-56
2022/09/02 04:08:17;;;;;;;;;;;;;;;17.55;45.84;101418.72;5112710;28;19935;-57
2022/09/02 04:10:42;;;;;;;;;;;;;;;17.54;45.84;101411.63;5112822;28;20362;-56
2022/09/02 04:13:07;;;;;;;;;;;;;;;17.49;46.42;101416.53;5112263;28;19907;-57
2022/09/02 04:15:32;;;;;;;;;;;;;;;17.42;45.54;101415.34;5112904;28;19914;-57
2022/09/02 04:17:58;;;;;;;;;;;;;;;17.38;45.99;101413.88;5112720;28;19912;-57
2022/09/02 04:20:23;;;;;;;;;;;;;;;17.37;46.32;101412.19;5112667;28;19955;-56
2022/09/02 04:22:48;;;;;;;;;;;;;;;17.36;46.06;101410.47;5112705;28;19923;-56
2022/09/02 04:25:14;;;;;;;;;;;;;;;17.35;45.96;101412.28;5111509;28;19912;-56
2022/09/02 04:27:39;;;;;;;;;;;;;;;17.37;45.71;101407.66;5111313;28;20023;-56
2022/09/02 04:30:08;;;;;;;;;;;;;;;17.39;45.56;101399.47;5112186;28;20278;-57
2022/09/02 04:32:34;;;;;;;;;;;;;;;17.39;47.87;101404.84;5112731;28;19998;-56
2022/09/02 04:34:59;;;;;;;;;;;;;;;17.33;46.31;101402.66;5111043;28;20282;-57
2022/09/02 04:37:26;;;;;;;;;;;;;;;17.32;46.30;101407.16;5112764;28;20432;-56
2022/09/02 04:39:51;;;;;;;;;;;;;;;17.30;46.36;101406.47;5112533;28;19915;-57
2022/09/02 04:42:16;;;;;;;;;;;;;;;17.27;46.66;101401.34;5112626;28;19908;-56
2022/09/02 04:44:45;;;;;;;;;;;;;;;17.28;46.40;101404.88;5111987;28;20366;-56
2022/09/02 04:47:11;;;;;;;;;;;;;;;17.28;46.04;101399.50;5112479;28;19994;-56
2022/09/02 04:49:36;;;;;;;;;;;;;;;17.32;47.81;101400.94;5112356;28;19961;-56
2022/09/02 04:52:01;;;;;;;;;;;;;;;17.30;47.27;101402.94;5111034;28;19959;-57
2022/09/02 04:54:26;;;;;;;;;;;;;;;17.33;46.77;101402.66;5111262;28;19907;-56
2022/09/02 04:56:52;;;;;;;;;;;;;;;17.33;47.10;101405.38;5111102;28;20019;-56
2022/09/02 04:59:20;;;;;;;;;;;;;;;17.34;46.37;101401.69;5111806;28;19930;-56
2022/09/02 05:01:45;;;;;;;;;;;;;;;17.38;48.03;101404.00;5113929;28;19908;-56
2022/09/02 05:04:10;;;;;;;;;;;;;;;17.36;47.54;101405.97;5114358;28;19915;-56
2022/09/02 05:06:36;;;;;;;;;;;;;;;17.37;48.41;101410.34;5115832;28;20394;-56
2022/09/02 05:09:04;;;;;;;;;;;;;;;17.40;46.65;101407.41;5115989;28;19912;-56
2022/09/02 05:11:32;;;;;;;;;;;;;;;17.44;47.69;101403.50;5115813;28;20488;-56
2022/09/02 05:13:59;;;;;;;;;;;;;;;17.44;48.29;101400.81;5115270;28;20366;-56
2022/09/02 05:16:26;;;;;;;;;;;;;;;17.41;47.71;101401.06;5114575;28;19908;-56
2022/09/02 05:18:54;;;;;;;;;;;;;;;17.45;47.79;101397.13;5115303;28;20377;-56
2022/09/02 05:21:20;;;;;;;;;;;;;;;17.48;47.58;101404.94;5115709;28;19943;-56
2022/09/02 05:23:48;;;;;;;;;;;;;;;17.56;48.35;101406.09;5114092;28;19916;-56
2022/09/02 05:26:13;;;;;;;;;;;;;;;17.61;47.55;101409.28;5115589;28;19915;-56
2022/09/02 05:28:39;;;;;;;;;;;;;;;17.65;47.83;101400.84;5115089;28;19912;-56
2022/09/02 05:31:06;;;;;;;;;;;;;;;17.67;47.52;101401.53;5115147;28;20018;-56
2022/09/02 05:33:32;;;;;;;;;;;;;;;17.70;48.08;101409.34;5115234;28;20019;-56
2022/09/02 05:35:58;;;;;;;;;;;;;;;17.72;47.51;101406.53;5115387;28;19924;-56
2022/09/02 05:38:25;;;;;;;;;;;;;;;17.76;47.74;101396.38;5113974;28;20255;-56
2022/09/02 05:40:51;;;;;;;;;;;;;;;17.80;47.80;101398.72;5114068;28;19907;-56
2022/09/02 05:43:16;;;;;;;;;;;;;;;17.83;47.43;101403.84;5114711;27;19915;-56
2022/09/02 05:45:41;;;;;;;;;;;;;;;17.82;47.57;101398.56;5114937;28;19911;-56
2022/09/02 05:49:05;;;;;;;;;;;;;;;17.83;47.42;101394.91;5114981;28;19908;-56
2022/09/02 05:50:51;;;;;;;;;;;;;;;17.82;48.06;101406.63;5114986;28;20354;-56
2022/09/02 05:53:17;;;;;;;;;;;;;;;17.83;48.00;101401.16;5114930;28;20014;-56
2022/09/02 05:55:42;;;;;;;;;;;;;;;17.84;47.88;101400.16;5113602;28;19912;-56
2022/09/02 05:58:08;;;;;;;;;;;;;;;17.87;47.75;101404.41;5113111;28;20006;-56
2022/09/02 06:00:33;;;;;;;;;;;;;;;17.90;46.62;101401.47;5114500;28;20366;-56
2022/09/02 06:02:58;;;;;;;;;;;;;;;17.92;48.17;101400.34;5114700;28;20305;-56
2022/09/02 06:05:23;;;;;;;;;;;;;;;17.95;46.65;101396.56;5113293;28;19995;-56
2022/09/02 06:07:48;;;;;;;;;;;;;;;17.94;47.87;101397.50;5113255;28;19923;-56
2022/09/02 06:10:14;;;;;;;;;;;;;;;17.95;48.12;101398.41;5113320;28;19914;-56
2022/09/02 06:12:42;;;;;;;;;;;;;;;17.94;47.77;101402.91;5112452;28;19922;-56
2022/09/02 06:15:07;;;;;;;;;;;;;;;17.98;47.88;101403.53;5112443;28;19907;-56
2022/09/02 06:17:32;;;;;;;;;;;;;;;18.00;47.43;101404.22;5114433;28;20358;-56
2022/09/02 06:19:57;;;;;;;;;;;;;;;18.02;47.85;101399.56;5114510;28;19907;-56
2022/09/02 06:22:23;;;;;;;;;;;;;;;18.04;47.84;101398.44;5114412;28;19952;-56
2022/09/02 06:24:48;;;;;;;;;;;;;;;18.07;47.76;101394.66;5114249;28;20187;-56
2022/09/02 06:27:13;;;;;;;;;;;;;;;18.10;48.61;101399.75;5112932;28;19908;-56
2022/09/02 06:29:39;;;;;;;;;;;;;;;18.11;47.94;101396.06;5114067;28;19918;-56
2022/09/02 06:32:04;;;;;;;;;;;;;;;18.15;47.99;101392.16;5114063;28;19911;-57
2022/09/02 06:34:29;;;;;;;;;;;;;;;18.17;48.13;101398.25;5114052;28;19912;-56
2022/09/02 06:36:56;;;;;;;;;;;;;;;18.17;48.64;101392.84;5113032;28;19907;-56
2022/09/02 06:39:22;;;;;;;;;;;;;;;18.21;47.57;101391.63;5113947;28;19915;-56
2022/09/02 06:41:48;;;;;;;;;;;;;;;18.25;47.98;101401.13;5112708;28;19908;-56
2022/09/02 06:44:14;;;;;;;;;;;;;;;18.28;47.93;101397.31;5113183;28;19923;-56
2022/09/02 06:46:43;;;;;;;;;;;;;;;18.28;49.10;101392.78;5112561;28;20436;-56
2022/09/02 06:49:09;;;;;;;;;;;;;;;18.27;49.23;101385.69;5113721;28;19912;-56
2022/09/02 06:51:38;;;;;;;;;;;;;;;18.29;47.91;101391.78;5112587;28;19957;-56
2022/09/02 06:54:07;;;;;;;;;;;;;;;18.30;48.54;101384.59;5113674;28;19908;-56
2022/09/02 06:56:33;;;;;;;;;;;;;;;18.33;48.55;101387.84;5113669;28;19957;-56
2022/09/02 06:58:58;;;;;;;;;;;;;;;18.38;47.98;101385.63;5111530;28;19955;-56
2022/09/02 07:01:25;;;;;;;;;;;;;;;18.38;48.67;101391.00;5113699;28;19914;-56
2022/09/02 07:06:36;;;;;;;;;;;;;;;18.47;48.09;101383.97;5113869;28;19936;-56
2022/09/02 07:09:02;;;;;;;;;;;;;;;18.54;48.08;101381.56;5112148;28;19908;-56
2022/09/02 07:11:27;;;;;;;;;;;;;;;18.52;48.70;101378.16;5113664;28;19945;-56
2022/09/02 07:13:52;;;;;;;;;;;;;;;18.54;48.17;101385.13;5112659;28;19908;-56
2022/09/02 07:16:18;;;;;;;;;;;;;;;18.57;48.56;101371.38;5113300;28;19907;-56
2022/09/02 07:18:43;;;;;;;;;;;;;;;18.61;48.30;101372.78;5113398;28;20389;-56
2022/09/02 07:21:09;;;;;;;;;;;;;;;18.67;48.01;101373.25;5113330;28;19915;-56
2022/09/02 07:23:35;;;;;;;;;;;;;;;18.70;48.25;101378.34;5112987;27;19908;-56
2022/09/02 07:26:00;;;;;;;;;;;;;;;18.70;48.51;101372.97;5112907;28;19915;-56
2022/09/02 07:28:26;;;;;;;;;;;;;;;18.73;47.96;101378.09;5112520;28;20286;-56
2022/09/02 07:30:54;;;;;;;;;;;;;;;18.78;48.11;101371.31;5113142;28;19904;-56
2022/09/02 07:33:20;;;;;;;;;;;;;;;18.82;47.83;101366.50;5113027;28;19923;-56
2022/09/02 07:35:46;;;;;;;;;;;;;;;18.86;48.17;101365.25;5111859;28;20427;-56
2022/09/02 07:38:11;;;;;;;;;;;;;;;18.90;48.34;101379.31;5111744;28;19953;-56
2022/09/02 07:40:38;;;;;;;;;;;;;;;18.91;48.63;101371.06;5113097;28;19908;-56
2022/09/02 07:43:04;;;;;;;;;;;;;;;18.93;48.19;101373.66;5110996;28;20350;-56
2022/09/02 07:45:30;;;;;;;;;;;;;;;18.95;48.25;101360.88;5113062;28;19914;-57
2022/09/02 07:47:56;;;;;;;;;;;;;;;18.97;48.15;101369.66;5113058;28;19908;-56
2022/09/02 07:50:23;;;;;;;;;;;;;;;18.99;48.34;101367.69;5113089;28;20380;-56
2022/09/02 07:52:49;;;;;;;;;;;;;;;19.03;48.14;101371.81;5112873;28;20217;-56
2022/09/02 07:55:14;;;;;;;;;;;;;;;19.05;48.18;101367.13;5111544;28;19962;-56
2022/09/02 07:57:40;;;;;;;;;;;;;;;19.08;48.07;101369.56;5112635;28;19911;-56
2022/09/02 08:00:05;;;;;;;;;;;;;;;19.11;48.01;101363.88;5110823;28;19915;-56
2022/09/02 08:02:31;;;;;;;;;;;;;;;19.15;47.90;101369.84;5113000;28;19913;-56
2022/09/02 08:04:58;;;;;;;;;;;;;;;19.18;47.64;101375.84;5112951;28;19907;-56
2022/09/02 08:07:23;;;;;;;;;;;;;;;19.21;48.13;101366.63;5112729;28;19908;-56
2022/09/02 08:09:50;;;;;;;;;;;;;;;19.26;47.76;101373.25;5111318;28;19939;-56
2022/09/02 08:12:15;;;;;;;;;;;;;;;19.32;47.67;101374.53;5111094;28;19911;-56
2022/09/02 08:14:41;;;;;;;;;;;;;;;19.38;48.04;101359.66;5112305;28;20362;-56
2022/09/02 08:17:06;;;;;;;;;;;;;;;19.40;48.11;101358.50;5112633;28;19907;-56
2022/09/02 08:19:31;;;;;;;;;;;;;;;19.38;47.98;101363.19;5112668;28;19915;-56
2022/09/02 08:22:05;;;;;;;;;;;;;;;19.40;48.11;101366.59;5112937;28;19931;-56
2022/09/02 08:24:31;;;;;;;;;;;;;;;19.45;47.78;101350.84;5111130;28;20370;-56
2022/09/02 08:26:56;;;;;;;;;;;;;;;19.53;48.13;101355.56;5112333;28;20304;-56
2022/09/02 08:29:22;;;;;;;;;;;;;;;19.57;47.97;101348.88;5111994;28;19915;-56
2022/09/02 08:31:47;;;;;;;;;;;;;;;19.63;48.31;101352.84;5112529;28;20298;-56
2022/09/02 08:34:13;;;;;;;;;;;;;;;19.67;47.93;101354.28;5111023;28;19907;-56
2022/09/02 08:36:42;;;;;;;;;;;;;;;19.69;48.10;101347.75;5113825;28;19916;-56
2022/09/02 08:39:07;;;;;;;;;;;;;;;19.75;48.07;101346.31;5116192;28;20357;-56
2022/09/02 08:41:40;;;;;;;;;;;;;;;19.83;47.57;101349.16;5116152;28;19951;-56
2022/09/02 08:44:06;;;;;;;;;;;;;;;19.90;47.84;101346.72;5114568;28;20015;-56
2022/09/02 08:46:33;;;;;;;;;;;;;;;19.97;47.59;101350.53;5116328;28;19907;-56
2022/09/02 08:49:02;;;;;;;;;;;;;;;20.01;47.77;101360.06;5115015;28;20015;-56
2022/09/02 08:51:37;;;;;;;;;;;;;;;20.05;47.16;101347.94;5116400;28;19938;-56
2022/09/02 08:54:11;;;;;;;;;;;;;;;20.14;47.20;101357.03;5114611;28;19907;-56
2022/09/02 08:56:36;;;;;;;;;;;;;;;20.18;47.44;101353.06;5116382;28;19930;-56
2022/09/02 08:59:02;;;;;;;;;;;;;;;20.22;46.69;101351.75;5115375;28;19920;-56
2022/09/02 09:01:33;;;;;;;;;;;;;;;20.30;47.16;101353.72;5114892;28;19976;-56
2022/09/02 09:04:26;;;;;;;;;;;;;;;20.36;46.61;101355.84;5115585;28;20429;-56
2022/09/02 09:06:51;;;;;;;;;;;;;;;20.43;47.72;101357.78;5099737;28;19946;-56
2022/09/02 09:09:18;;;;;;;;;;;;;;;20.47;47.27;101362.88;5115294;28;19973;-56
2022/09/02 09:11:49;;;;;;;;;;;;;;;20.51;47.01;101365.16;5114528;28;19911;-56
2022/09/02 09:14:19;;;;;;;;;;;;;;;20.59;47.17;101362.59;5115225;27;19915;-56
2022/09/02 09:16:44;;;;;;;;;;;;;;;20.69;46.92;101359.84;5115677;28;19999;-56
2022/09/02 09:19:14;;;;;;;;;;;;;;;20.75;46.79;101358.38;5115533;28;19947;-56
2022/09/02 09:21:40;;;;;;;;;;;;;;;20.77;46.97;101364.50;5114468;28;19942;-56
2022/09/02 09:24:17;;;;;;;;;;;;;;;20.85;46.39;101361.88;5114070;28;19923;-56
2022/09/02 09:26:42;;;;;;;;;;;;;;;20.91;46.60;101355.84;5115437;28;19915;-57
2022/09/02 09:29:08;;;;;;;;;;;;;;;20.92;46.60;101354.88;5114797;28;19911;-56
2022/09/02 09:31:34;;;;;;;;;;;;;;;20.98;46.62;101351.56;5115343;28;19966;-56
2022/09/02 09:34:01;;;;;;;;;;;;;;;21.07;46.63;101347.94;5115332;28;19911;-57
2022/09/02 09:36:39;;;;;;;;;;;;;;;21.18;46.61;101354.97;5115541;28;19907;-56
2022/09/02 09:39:19;;;;;;;;;;;;;;;21.31;46.11;101346.47;5114941;28;19949;-56
2022/09/02 09:41:45;;;;;;;;;;;;;;;21.41;46.13;101335.59;5114045;28;19908;-56
2022/09/02 09:44:27;;;;;;;;;;;;;;;21.53;46.28;101331.63;5114739;28;19908;-56
2022/09/02 09:47:07;;;;;;;;;;;;;;;21.70;46.22;101330.75;5114941;28;19915;-56
2022/09/02 09:49:32;;;;;;;;;;;;;;;21.84;44.90;101333.91;5114952;28;20347;-56
2022/09/02 09:51:59;;;;;;;;;;;;;;;21.93;45.39;101333.81;5113943;28;19947;-56
2022/09/02 09:54:25;;;;;;;;;;;;;;;22.02;44.98;101329.28;5113779;28;19918;-56
2022/09/02 09:56:51;;;;;;;;;;;;;;;22.16;44.61;101334.13;5113552;28;19919;-56
2022/09/02 09:59:34;;;;;;;;;;;;;;;22.38;44.55;101330.06;5114089;28;19919;-56
2022/09/02 10:02:00;;;;;;;;;;;;;;;22.62;44.04;101321.16;5114943;28;19922;-56
2022/09/02 10:04:29;;;;;;;;;;;;;;;22.99;42.69;101311.78;5113605;28;19977;-56
2022/09/02 10:06:55;;;;;;;;;;;;;;;23.31;42.46;101326.44;5114600;28;20247;-56
2022/09/02 10:09:20;;;;;;;;;;;;;;;23.60;42.37;101314.22;5114550;28;19914;-56
2022/09/02 10:11:56;;;;;;;;;;;;;;;23.85;41.13;101317.78;5114635;28;19912;-56
2022/09/02 10:14:22;;;;;;;;;;;;;;;24.05;40.23;101315.53;5112767;28;20044;-56
2022/09/02 10:16:50;;;;;;;;;;;;;;;24.22;40.66;101312.59;5114580;28;19908;-56
2022/09/02 10:19:15;;;;;;;;;;;;;;;24.48;39.27;101317.81;5114155;28;19914;-56
2022/09/02 10:21:44;;;;;;;;;;;;;;;24.66;39.04;101311.25;5114387;28;19907;-56
2022/09/02 10:24:09;;;;;;;;;;;;;;;24.84;39.08;101308.28;5112927;28;19969;-56
2022/09/02 10:26:42;;;;;;;;;;;;;;;25.09;37.85;101307.09;5113108;28;20366;-56
2022/09/02 10:29:13;;;;;;;;;;;;;;;25.33;36.89;101303.38;5113793;27;19995;-56
2022/09/02 10:32:04;;;;;;;;;;;;;;;25.48;36.47;101297.13;5114172;28;19912;-57
2022/09/02 10:34:36;;;;;;;;;;;;;;;25.64;37.06;101294.25;5114097;28;20016;-56
2022/09/02 10:37:22;;;;;;;;;;;;;;;25.81;36.22;101290.31;5114008;28;19911;-57
2022/09/02 10:39:50;;;;;;;;;;;;;;;26.11;35.45;101295.81;5129909;27;19908;-57
2022/09/02 10:42:22;;;;;;;;;;;;;;;26.21;34.90;101293.69;5113926;28;19938;-57
2022/09/02 10:45:02;;;;;;;;;;;;;;;26.31;34.42;101290.66;5113620;28;19907;-57
2022/09/02 10:47:34;;;;;;;;;;;;;;;26.50;34.66;101283.78;5114133;28;19946;-57
2022/09/02 10:50:06;;;;;;;;;;;;;;;26.68;35.87;101286.13;5112572;28;19911;-56
2022/09/02 10:52:37;;;;;;;;;;;;;;;26.88;33.25;101272.66;5112422;28;20405;-57
2022/09/02 10:55:40;;;;;;;;;;;;;;;26.95;33.20;101271.72;5112555;28;19915;-56
2022/09/02 10:58:13;;;;;;;;;;;;;;;27.32;32.72;101269.75;5091399;28;19923;-57
2022/09/02 11:00:40;;;;;;;;;;;;;;;27.52;31.53;101269.94;5112995;28;20331;-57
2022/09/02 11:03:11;;;;;;;;;;;;;;;27.66;31.25;101267.31;5113479;28;19933;-56
2022/09/02 11:05:36;;;;;;;;;;;;;;;27.81;30.43;101258.00;5113531;28;19908;-57
2022/09/02 11:08:02;;;;;;;;;;;;;;;27.94;30.14;101259.13;5113292;28;19914;-57
2022/09/02 11:10:33;;;;;;;;;;;;;;;28.13;30.13;101247.44;5113672;28;19922;-57
2022/09/02 11:13:13;;;;;;;;;;;;;;;28.35;30.00;101252.78;5113180;28;19995;-57
2022/09/02 11:15:47;;;;;;;;;;;;;;;28.57;30.44;101254.41;5112235;28;20330;-57
2022/09/02 11:18:19;;;;;;;;;;;;;;;28.75;29.31;101246.44;5113254;28;19908;-57
2022/09/02 11:20:56;;;;;;;;;;;;;;;29.04;29.18;101247.16;5113102;28;19912;-57
2022/09/02 11:23:40;;;;;;;;;;;;;;;29.42;28.17;101236.41;5113279;28;19988;-57
2022/09/02 11:26:11;;;;;;;;;;;;;;;29.79;26.85;101236.81;5111997;28;19915;-57
2022/09/02 11:28:51;;;;;;;;;;;;;;;30.07;24.73;101239.28;5112698;28;20016;-57
2022/09/02 11:31:32;;;;;;;;;;;;;;;30.27;24.14;101232.91;5113126;28;19937;-57
2022/09/02 11:34:16;;;;;;;;;;;;;;;30.47;25.88;101235.53;5111736;28;19955;-57
2022/09/02 11:36:41;;;;;;;;;;;;;;;30.25;24.96;101237.75;5111906;28;20354;-57
2022/09/02 11:39:16;;;;;;;;;;;;;;;29.78;26.08;101235.13;5113014;28;19961;-57
2022/09/02 11:41:47;;;;;;;;;;;;;;;29.93;25.54;101229.38;5113089;28;19907;-57
2022/09/02 11:44:23;;;;;;;;;;;;;;;30.51;24.13;101232.16;5111233;28;19907;-57
2022/09/02 11:46:55;;;;;;;;;;;;;;;31.38;25.01;101224.16;5111806;28;19907;-57
2022/09/02 11:49:32;;;;;;;;;;;;;;;32.74;22.24;101218.59;5112599;28;19907;-57
2022/09/02 11:51:57;;;;;;;;;;;;;;;33.65;23.24;101208.19;5111738;28;19919;-57
2022/09/02 11:54:25;;;;;;;;;;;;;;;33.41;21.91;101215.59;5112768;28;19908;-57
2022/09/02 11:56:55;;;;;;;;;;;;;;;33.00;22.69;101211.84;5112856;28;19915;-57
2022/09/02 11:59:39;;;;;;;;;;;;;;;32.66;23.19;101217.00;5111827;28;19988;-57
2022/09/02 12:02:05;;;;;;;;;;;;;;;31.96;22.40;101205.63;5112826;28;20438;-57
2022/09/02 12:04:30;;;;;;;;;;;;;;;31.99;22.98;101205.16;5112466;28;19954;-57
2022/09/02 12:07:04;;;;;;;;;;;;;;;32.88;21.81;101199.94;5112924;27;19990;-57
2022/09/02 12:09:41;;;;;;;;;;;;;;;33.78;20.86;101196.91;5112583;28;19907;-57
2022/09/02 12:12:07;;;;;;;;;;;;;;;34.77;20.25;101198.63;5116718;28;19935;-57
2022/09/02 12:14:33;;;;;;;;;;;;;;;35.82;18.26;101191.44;5116410;28;19908;-58
2022/09/02 12:17:01;;;;;;;;;;;;;;;36.22;19.62;101197.78;5117178;28;19922;-57
2022/09/02 12:19:27;;;;;;;;;;;;;;;36.91;17.63;101189.63;5115347;28;19930;-58
2022/09/02 12:22:11;;;;;;;;;;;;;;;36.10;17.97;101192.38;5116817;28;19908;-57
2022/09/02 12:24:52;;;;;;;;;;;;;;;36.15;17.47;101184.09;5116718;28;20405;-57
2022/09/02 12:27:27;;;;;;;;;;;;;;;36.87;18.40;101194.03;5116622;28;19908;-58
2022/09/02 12:29:52;;;;;;;;;;;;;;;37.70;16.73;101187.97;5114946;28;19911;-58
2022/09/02 12:32:53;;;;;;;;;;;;;;;37.71;15.38;101173.84;5116310;28;19912;-58
2022/09/02 12:35:33;;;;;;;;;;;;;;;36.62;17.17;101183.53;5073575;28;19958;-57
2022/09/02 12:38:07;;;;;;;;;;;;;;;36.76;16.79;101181.16;5111959;28;19953;-58
2022/09/02 12:40:36;;;;;;;;;;;;;;;37.43;15.65;101163.94;5116470;28;19908;-57
2022/09/02 12:43:03;;;;;;;;;;;;;;;37.44;15.83;101157.28;5114500;28;19907;-57